Terminal Aerodrome Forecast
Issued by NWS

Home | Current Version | Previous Version | Text Only | Print | Product List | Glossary On
Versions: 1 2 3 4 5 6 7 8 9 10 11 12 13 14 15 16 17 18 19 20 21 22 23 24 25 26 27 28 29 30 31 32
000
FTUS46 KEKA 222100 AAC
TAFCEC
TAF AMD
KCEC 222119Z 2221/2318 32010KT P6SM SKC
     FM230000 33012G18KT P6SM SKC
     FM230500 33005KT 5SM BR OVC009
     FM230900 VRB03KT 2SM BR OVC005=

USA.gov is the U.S. government's official web portal to all federal, state and local government web resources and services.